createdAt,value
2023-01-10T00:00:35.409Z,100189.25
2023-01-10T00:03:03.206Z,100201.44
2023-01-10T00:05:31.070Z,100196.59
2023-01-10T00:07:59.070Z,100201.47
2023-01-10T00:10:27.041Z,100214.63
2023-01-10T00:13:12.490Z,100226.91
2023-01-10T00:15:41.504Z,100223.56
2023-01-10T00:18:09.442Z,100220.47
2023-01-10T00:20:37.264Z,100229.16
2023-01-10T00:23:06.915Z,100224.88
2023-01-10T00:25:36.113Z,100236.09
2023-01-10T00:28:07.259Z,100236.25
2023-01-10T00:30:35.543Z,100245.94
2023-01-10T00:33:07.928Z,100245.25
2023-01-10T00:35:36.429Z,100249.75
2023-01-10T00:40:58.735Z,100268.25
2023-01-10T00:43:44.158Z,100269.09
2023-01-10T00:46:12.364Z,100264.66
2023-01-10T00:51:41.032Z,100279.78
2023-01-10T00:54:14.283Z,100283.84
2023-01-10T00:59:44.315Z,100279.34
2023-01-10T01:02:11.913Z,100287.22
2023-01-10T01:04:40.874Z,100293.38
2023-01-10T01:07:09.344Z,100298.53
2023-01-10T01:09:57.962Z,100305.16
2023-01-10T01:12:25.652Z,100314.78
2023-01-10T01:14:53.334Z,100319.09
2023-01-10T01:17:21.281Z,100334.03
2023-01-10T01:19:50.295Z,100335.97
2023-01-10T01:22:17.992Z,100346.22
2023-01-10T01:24:45.520Z,100348.31
2023-01-10T01:27:13.144Z,100355.28
2023-01-10T01:29:43.427Z,100362.84
2023-01-10T01:32:11.320Z,100363.44
2023-01-10T01:34:39.143Z,100367.63
2023-01-10T01:37:08.305Z,100365.19
2023-01-10T01:39:35.833Z,100369.38
2023-01-10T01:42:03.586Z,100375.78
2023-01-10T01:44:32.576Z,100383.81
2023-01-10T01:47:03.560Z,100388.31
2023-01-10T01:49:32.117Z,100390.06
2023-01-10T01:52:02.624Z,100404.59
2023-01-10T01:54:32.454Z,100403.59
2023-01-10T01:57:36.614Z,100414.63
2023-01-10T02:00:27.355Z,100419.72
2023-01-10T02:03:02.972Z,100426.50
2023-01-10T02:05:31.918Z,100424.72
2023-01-10T02:08:02.022Z,100434.72
2023-01-10T02:10:34.946Z,100443.22
2023-01-10T02:13:05.953Z,100440.09
2023-01-10T02:15:33.495Z,100441.03
2023-01-10T02:18:01.692Z,100448.53
2023-01-10T02:20:30.824Z,100445.41
2023-01-10T02:23:19.857Z,100451.59
2023-01-10T02:26:02.474Z,100471.72
2023-01-10T02:28:50.213Z,100469.47
2023-01-10T02:45:58.856Z,100474.72
2023-01-10T02:48:26.440Z,100488.53
2023-01-10T02:50:58.538Z,100495.63
2023-01-10T02:53:28.626Z,100497.47
2023-01-10T02:56:18.451Z,100507.78
2023-01-10T02:58:59.437Z,100505.66
2023-01-10T03:01:35.485Z,100510.41
2023-01-10T03:04:07.656Z,100513.50
2023-01-10T03:06:41.187Z,100519.13
2023-01-10T03:09:12.874Z,100515.00
2023-01-10T03:11:42.235Z,100527.28
2023-01-10T03:14:14.769Z,100523.16
2023-01-10T03:16:43.643Z,100526.53
2023-01-10T03:19:13.364Z,100536.38
2023-01-10T03:21:42.043Z,100540.47
2023-01-10T03:24:12.068Z,100545.75
2023-01-10T03:26:45.873Z,100546.56
2023-01-10T03:29:19.673Z,100551.44
2023-01-10T03:31:50.732Z,100557.50
2023-01-10T03:34:18.288Z,100559.59
2023-01-10T03:36:51.141Z,100564.34
2023-01-10T03:39:23.592Z,100559.06
2023-01-10T03:41:54.216Z,100556.78
2023-01-10T03:44:44.786Z,100567.47
2023-01-10T03:47:17.543Z,100575.94
2023-01-10T03:49:48.022Z,100576.63
2023-01-10T03:52:17.666Z,100584.31
2023-01-10T03:54:45.864Z,100586.41
2023-01-10T03:57:18.551Z,100580.69
2023-01-10T03:59:47.462Z,100599.09
2023-01-10T04:02:15.097Z,100593.09
2023-01-10T04:04:42.994Z,100593.03
2023-01-10T04:07:10.634Z,100586.84
2023-01-10T04:09:38.302Z,100601.91
2023-01-10T04:12:06.152Z,100623.63
2023-01-10T04:14:33.837Z,100624.22
2023-01-10T04:17:02.851Z,100633.28
2023-01-10T04:19:30.463Z,100639.22
2023-01-10T04:21:57.933Z,100648.88
2023-01-10T04:24:25.685Z,100641.59
2023-01-10T04:26:53.444Z,100646.31
2023-01-10T04:29:20.943Z,100648.56
2023-01-10T04:31:48.664Z,100650.34
2023-01-10T04:34:32.919Z,100649.75
2023-01-10T04:37:00.649Z,100652.66
2023-01-10T04:39:28.399Z,100661.22
2023-01-10T04:41:56.357Z,100660.53
2023-01-10T04:47:16.760Z,100686.78
2023-01-10T04:49:46.649Z,100691.13
2023-01-10T04:52:14.526Z,100693.59
2023-01-10T04:54:42.528Z,100695.22
2023-01-10T04:57:10.727Z,100691.88
2023-01-10T04:59:43.750Z,100701.78
2023-01-10T05:02:11.925Z,100709.63
2023-01-10T05:04:39.662Z,100708.31
2023-01-10T05:07:08.852Z,100707.84
2023-01-10T05:09:36.394Z,100723.59
2023-01-10T05:12:04.282Z,100726.50
2023-01-10T05:14:31.798Z,100722.13
2023-01-10T05:16:59.546Z,100730.00
2023-01-10T05:19:27.117Z,100730.09
2023-01-10T05:21:57.431Z,100728.16
2023-01-10T05:24:26.435Z,100731.25
2023-01-10T05:26:54.192Z,100745.75
2023-01-10T05:29:21.804Z,100752.47
2023-01-10T05:31:51.809Z,100754.78
2023-01-10T05:34:19.558Z,100751.22
2023-01-10T05:36:47.211Z,100760.22
2023-01-10T05:39:15.464Z,100760.75
2023-01-10T05:41:45.383Z,100764.47
2023-01-10T05:44:14.780Z,100772.13
2023-01-10T05:46:42.859Z,100777.38
2023-01-10T05:49:10.527Z,100778.06
2023-01-10T05:51:38.139Z,100781.78
2023-01-10T05:54:06.061Z,100787.34
2023-01-10T05:56:34.044Z,100796.09
2023-01-10T05:59:14.032Z,100792.03
2023-01-10T06:02:02.369Z,100800.25
2023-01-10T06:04:30.278Z,100800.56
2023-01-10T06:09:39.730Z,100823.25
2023-01-10T06:12:07.568Z,100821.00
2023-01-10T06:14:36.733Z,100836.63
2023-01-10T06:19:53.205Z,100847.69
2023-01-10T06:22:20.695Z,100845.91
2023-01-10T06:24:48.141Z,100852.97
2023-01-10T06:27:15.717Z,100864.25
2023-01-10T06:29:44.631Z,100861.16
2023-01-10T06:32:12.543Z,100866.75
2023-01-10T06:34:40.036Z,100867.56
2023-01-10T06:37:08.410Z,100870.91
2023-01-10T06:39:35.861Z,100880.38
2023-01-10T06:42:03.361Z,100884.94
2023-01-10T06:44:30.730Z,100893.31
2023-01-10T06:46:59.533Z,100892.03
2023-01-10T06:49:27.020Z,100897.38
2023-01-10T06:51:54.480Z,100902.91
2023-01-10T06:54:21.902Z,100901.84
2023-01-10T06:56:49.583Z,100901.66
2023-01-10T06:59:17.471Z,100905.78
2023-01-10T07:01:44.935Z,100917.22
2023-01-10T07:04:14.023Z,100917.63
2023-01-10T07:06:42.284Z,100930.22
2023-01-10T07:09:09.949Z,100924.66
2023-01-10T07:11:37.638Z,100939.50
2023-01-10T07:14:05.133Z,100935.84
2023-01-10T07:16:32.780Z,100942.78
2023-01-10T07:19:00.759Z,100945.28
2023-01-10T07:21:29.696Z,100955.00
2023-01-10T07:23:57.168Z,100948.16
2023-01-10T07:26:24.615Z,100949.59
2023-01-10T07:28:52.410Z,100948.69
2023-01-10T07:31:21.090Z,100950.81
2023-01-10T07:33:48.819Z,100952.72
2023-01-10T07:36:16.752Z,100949.31
2023-01-10T07:38:45.774Z,100947.19
2023-01-10T07:41:13.229Z,100955.63
2023-01-10T07:43:40.730Z,100959.09
2023-01-10T07:46:09.613Z,100957.63
2023-01-10T07:48:37.371Z,100969.56
2023-01-10T07:51:05.881Z,100967.91
2023-01-10T07:53:33.390Z,100981.06
2023-01-10T07:56:03.163Z,100977.38
2023-01-10T07:58:31.296Z,100985.59
2023-01-10T08:00:59.349Z,100980.81
2023-01-10T08:03:27.543Z,100992.16
2023-01-10T08:05:59.663Z,100988.34
2023-01-10T08:08:27.245Z,100989.56
2023-01-10T08:10:54.725Z,100990.09
2023-01-10T08:13:23.573Z,100999.16
2023-01-10T08:15:52.502Z,100996.00
2023-01-10T08:18:21.221Z,100998.03
2023-01-10T08:20:50.133Z,100996.78
2023-01-10T08:23:17.872Z,100997.44
2023-01-10T08:25:45.459Z,100995.28
2023-01-10T08:28:12.990Z,100991.84
2023-01-10T08:30:41.934Z,100989.75
2023-01-10T08:33:10.402Z,101011.09
2023-01-10T08:35:41.142Z,101018.28
2023-01-10T08:38:09.564Z,101018.28
2023-01-10T08:40:37.307Z,101031.09
2023-01-10T08:43:05.941Z,101038.69
2023-01-10T08:45:34.107Z,101032.16
2023-01-10T08:48:03.769Z,101034.97
2023-01-10T08:50:32.222Z,101041.63
2023-01-10T08:53:00.047Z,101036.25
2023-01-10T08:55:28.678Z,101032.97
2023-01-10T08:58:12.838Z,101051.22
2023-01-10T09:03:45.302Z,101062.56
2023-01-10T09:11:30.544Z,101060.94
2023-01-10T09:13:58.126Z,101069.19
2023-01-10T09:16:25.785Z,101059.50
2023-01-10T09:19:02.506Z,101046.53
2023-01-10T09:21:43.554Z,101041.22
2023-01-10T09:24:35.175Z,101031.59
2023-01-10T09:27:11.180Z,101032.78
2023-01-10T09:29:43.146Z,101050.84
2023-01-10T09:32:15.526Z,101047.78
2023-01-10T09:34:48.082Z,101041.81
2023-01-10T09:37:15.727Z,101041.97
2023-01-10T09:39:43.983Z,101063.59
2023-01-10T09:42:25.469Z,101064.78
2023-01-10T09:44:58.740Z,101060.94
2023-01-10T09:47:33.522Z,101069.34
2023-01-10T09:50:12.352Z,101074.09
2023-01-10T09:52:45.525Z,101095.47
2023-01-10T09:55:21.769Z,101095.69
2023-01-10T09:57:50.596Z,101112.31
2023-01-10T10:00:21.389Z,101106.97
2023-01-10T10:02:52.551Z,101110.50
2023-01-10T10:05:22.923Z,101114.38
2023-01-10T10:07:53.995Z,101114.34
2023-01-10T10:10:28.491Z,101116.19
2023-01-10T10:13:05.844Z,101117.47
2023-01-10T10:15:43.836Z,101108.03
2023-01-10T10:18:17.655Z,101114.97
2023-01-10T10:20:59.292Z,101115.41
2023-01-10T10:23:50.947Z,101119.72
2023-01-10T10:26:23.430Z,101115.19
2023-01-10T10:29:07.461Z,101119.50
2023-01-10T10:31:50.063Z,101116.78
2023-01-10T10:34:25.072Z,101110.22
2023-01-10T10:36:56.211Z,101108.59
2023-01-10T10:39:36.178Z,101111.84
2023-01-10T10:42:05.463Z,101106.38
2023-01-10T10:44:37.492Z,101102.63
2023-01-10T10:47:12.558Z,101105.25
2023-01-10T10:49:44.465Z,101100.75
2023-01-10T10:52:21.279Z,101095.81
2023-01-10T10:54:51.127Z,101112.69
2023-01-10T10:57:19.008Z,101114.34
2023-01-10T10:59:49.007Z,101112.91
2023-01-10T11:02:26.955Z,101104.03
2023-01-10T11:04:57.651Z,101111.06
2023-01-10T11:07:29.638Z,101106.69
2023-01-10T11:10:13.027Z,101122.53
2023-01-10T11:12:45.204Z,101114.31
2023-01-10T11:15:12.744Z,101115.97
2023-01-10T11:17:41.453Z,101119.91
2023-01-10T11:20:16.486Z,101123.63
2023-01-10T11:22:49.092Z,101128.75
2023-01-10T11:25:18.053Z,101123.41
2023-01-10T11:27:48.349Z,101124.63
2023-01-10T11:30:19.343Z,101120.88
2023-01-10T11:32:51.154Z,101126.63
2023-01-10T11:35:22.454Z,101133.63
2023-01-10T11:38:01.757Z,101135.13
2023-01-10T11:40:30.219Z,101134.91
2023-01-10T11:42:59.618Z,101134.47
2023-01-10T11:45:31.804Z,101137.13
2023-01-10T11:48:56.265Z,101136.56
2023-01-10T11:52:01.391Z,101127.09
2023-01-10T11:54:32.150Z,101137.16
2023-01-10T12:00:25.198Z,101131.84
2023-01-10T12:02:55.469Z,101138.81
2023-01-10T12:05:26.762Z,101127.69
2023-01-10T12:07:55.820Z,101134.09
2023-01-10T12:10:38.187Z,101131.22
2023-01-10T12:13:42.975Z,101136.09
2023-01-10T12:16:23.315Z,101131.97
2023-01-10T12:19:13.377Z,101133.03
2023-01-10T12:21:50.068Z,101128.28
2023-01-10T12:24:21.818Z,101129.72
2023-01-10T12:27:18.799Z,101128.72
2023-01-10T12:29:50.870Z,101131.56
2023-01-10T12:32:21.472Z,101126.25
2023-01-10T12:34:52.724Z,101133.88
2023-01-10T12:37:23.903Z,101137.94
2023-01-10T12:39:55.181Z,101137.34
2023-01-10T12:42:49.327Z,101134.09
2023-01-10T12:45:21.355Z,101140.03
2023-01-10T12:48:00.551Z,101128.03
2023-01-10T12:50:32.519Z,101134.25
2023-01-10T12:53:04.742Z,101134.88
2023-01-10T12:55:36.475Z,101127.69
2023-01-10T12:58:06.351Z,101139.63
2023-01-10T13:00:47.486Z,101138.97
2023-01-10T13:03:20.640Z,101144.53
2023-01-10T13:05:59.329Z,101135.69
2023-01-10T13:08:28.120Z,101129.88
2023-01-10T13:10:58.107Z,101124.94
2023-01-10T13:13:34.315Z,101141.22
2023-01-10T13:16:11.492Z,101127.22
2023-01-10T13:18:39.265Z,101126.63
2023-01-10T13:21:13.359Z,101123.13
2023-01-10T13:23:48.595Z,101122.06
2023-01-10T13:26:16.330Z,101117.78
2023-01-10T13:28:55.171Z,101120.66
2023-01-10T13:31:25.145Z,101116.34
2023-01-10T13:33:55.972Z,101124.16
2023-01-10T13:36:26.162Z,101126.88
2023-01-10T13:38:56.247Z,101125.78
2023-01-10T13:41:42.751Z,101127.03
2023-01-10T13:44:13.714Z,101122.53
2023-01-10T13:46:50.047Z,101126.06
2023-01-10T13:49:47.844Z,101119.66
2023-01-10T13:52:39.516Z,101122.94
2023-01-10T13:55:36.057Z,101127.03
2023-01-10T13:58:05.796Z,101132.44
2023-01-10T14:01:04.712Z,101130.75
2023-01-10T14:03:51.106Z,101135.72
2023-01-10T14:06:42.622Z,101134.25
2023-01-10T14:09:39.826Z,101142.28
2023-01-10T14:12:23.490Z,101133.84
2023-01-10T14:15:22.669Z,101142.09
2023-01-10T14:17:58.921Z,101132.19
2023-01-10T14:20:35.082Z,101139.44
2023-01-10T14:23:30.805Z,101145.16
2023-01-10T14:28:41.634Z,101143.91
2023-01-10T14:31:13.737Z,101141.25
2023-01-10T14:33:44.222Z,101135.06
2023-01-10T14:36:17.989Z,101138.00
2023-01-10T14:38:46.459Z,101134.47
2023-01-10T14:41:18.735Z,101132.22
2023-01-10T14:43:49.351Z,101123.78
2023-01-10T14:46:19.072Z,101126.44
2023-01-10T14:48:51.529Z,101119.28
2023-01-10T14:51:22.660Z,101116.41
2023-01-10T14:54:10.004Z,101123.84
2023-01-10T14:56:39.891Z,101118.69
2023-01-10T14:59:26.770Z,101118.69
2023-01-10T15:01:59.734Z,101114.31
2023-01-10T15:04:31.032Z,101118.44
2023-01-10T15:07:04.739Z,101113.94
2023-01-10T15:09:33.349Z,101119.88
2023-01-10T15:12:02.814Z,101119.72
2023-01-10T15:14:30.756Z,101119.28
2023-01-10T15:17:02.332Z,101111.06
2023-01-10T15:19:36.065Z,101114.97
2023-01-10T15:22:04.719Z,101117.06
2023-01-10T15:24:34.612Z,101105.94
2023-01-10T15:27:04.368Z,101108.84
2023-01-10T15:29:32.202Z,101108.28
2023-01-10T15:32:11.049Z,101099.81
2023-01-10T15:34:42.492Z,101102.06
2023-01-10T15:37:20.040Z,101096.50
2023-01-10T15:39:48.107Z,101100.00
2023-01-10T15:42:15.916Z,101096.09
2023-01-10T15:44:45.939Z,101099.81
2023-01-10T15:47:36.817Z,101101.44
2023-01-10T15:50:19.330Z,101101.22
2023-01-10T15:52:50.671Z,101099.16
2023-01-10T15:55:37.731Z,101099.78
2023-01-10T15:58:06.510Z,101096.28
2023-01-10T16:00:34.315Z,101095.69
2023-01-10T16:03:04.204Z,101093.19
2023-01-10T16:05:33.181Z,101089.97
2023-01-10T16:08:01.815Z,101099.78
2023-01-10T16:10:29.770Z,101085.88
2023-01-10T16:13:27.972Z,101087.28
2023-01-10T16:15:56.882Z,101075.75
2023-01-10T16:18:25.082Z,101074.97
2023-01-10T16:20:56.370Z,101082.94
2023-01-10T16:23:25.476Z,101073.34
2023-01-10T16:25:54.650Z,101079.47
2023-01-10T16:28:22.839Z,101084.41
2023-01-10T16:30:50.754Z,101080.91
2023-01-10T16:33:23.259Z,101076.41
2023-01-10T16:35:54.532Z,101073.94
2023-01-10T16:38:23.210Z,101068.78
2023-01-10T16:40:53.484Z,101059.75
2023-01-10T16:43:23.836Z,101055.88
2023-01-10T16:45:54.924Z,101053.22
2023-01-10T16:48:22.485Z,101052.38
2023-01-10T16:53:39.274Z,101039.03
2023-01-10T16:56:08.306Z,101045.41
2023-01-10T16:58:35.847Z,101033.50
2023-01-10T17:01:03.491Z,101029.81
2023-01-10T17:03:34.230Z,101020.16
2023-01-10T17:06:03.084Z,101017.28
2023-01-10T17:08:30.665Z,101016.25
2023-01-10T17:11:05.691Z,101012.13
2023-01-10T17:13:36.219Z,101012.97
2023-01-10T17:16:04.478Z,101025.47
2023-01-10T17:18:32.004Z,101010.91
2023-01-10T17:20:59.705Z,101004.56
2023-01-10T17:23:29.472Z,101012.53
2023-01-10T17:26:00.700Z,100991.81
2023-01-10T17:28:28.851Z,100996.31
2023-01-10T17:30:56.692Z,100993.44
2023-01-10T17:33:27.288Z,100987.91
2023-01-10T17:35:58.330Z,100988.09
2023-01-10T17:38:28.840Z,100987.06
2023-01-10T17:41:04.082Z,100971.69
2023-01-10T17:43:32.168Z,100973.13
2023-01-10T17:45:59.803Z,100964.50
2023-01-10T17:48:27.870Z,100959.19
2023-01-10T17:50:58.130Z,100962.06
2023-01-10T17:53:26.208Z,100956.91
2023-01-10T17:56:18.205Z,100951.56
2023-01-10T17:58:47.360Z,100955.94
2023-01-10T18:01:18.788Z,100951.19
2023-01-10T18:03:46.333Z,100941.53
2023-01-10T18:06:23.348Z,100934.56
2023-01-10T18:08:51.394Z,100927.75
2023-01-10T18:11:18.873Z,100937.00
2023-01-10T18:13:47.581Z,100929.84
2023-01-10T18:16:15.067Z,100922.66
2023-01-10T18:18:42.468Z,100920.81
2023-01-10T18:21:13.618Z,100918.56
2023-01-10T18:23:41.027Z,100916.50
2023-01-10T18:26:09.905Z,100904.78
2023-01-10T18:28:41.734Z,100894.28
2023-01-10T18:31:13.165Z,100900.50
2023-01-10T18:33:40.700Z,100896.38
2023-01-10T18:36:09.411Z,100892.66
2023-01-10T18:38:37.679Z,100890.84
2023-01-10T18:41:05.309Z,100896.00
2023-01-10T18:43:33.054Z,100890.00
2023-01-10T18:46:04.534Z,100889.41
2023-01-10T18:48:33.643Z,100884.91
2023-01-10T18:51:02.536Z,100887.97
2023-01-10T18:53:30.421Z,100874.25
2023-01-10T18:55:59.405Z,100882.63
2023-01-10T18:58:27.950Z,100875.88
2023-01-10T19:00:55.895Z,100878.75
2023-01-10T19:03:23.782Z,100876.28
2023-01-10T19:05:52.742Z,100869.31
2023-01-10T19:08:20.270Z,100864.16
2023-01-10T19:11:11.793Z,100865.19
2023-01-10T19:13:35.840Z,100862.13
2023-01-10T19:16:11.393Z,100850.81
2023-01-10T19:18:38.886Z,100857.78
2023-01-10T19:21:15.013Z,100852.69
2023-01-10T19:23:42.684Z,100854.94
2023-01-10T19:26:10.209Z,100859.47
2023-01-10T19:28:37.724Z,100858.63
2023-01-10T19:31:05.726Z,100842.22
2023-01-10T19:33:34.203Z,100837.91
2023-01-10T19:36:07.841Z,100832.75
2023-01-10T19:38:35.299Z,100828.97
2023-01-10T19:41:03.581Z,100829.66
2023-01-10T19:43:31.023Z,100829.25
2023-01-10T19:45:58.505Z,100823.09
2023-01-10T19:48:26.198Z,100825.38
2023-01-10T19:50:53.758Z,100834.03
2023-01-10T19:53:27.076Z,100821.69
2023-01-10T19:56:05.795Z,100827.88
2023-01-10T19:58:33.422Z,100820.06
2023-01-10T20:01:08.396Z,100813.06
2023-01-10T20:03:35.811Z,100814.88
2023-01-10T20:06:04.663Z,100815.72
2023-01-10T20:08:33.535Z,100803.00
2023-01-10T20:11:04.459Z,100799.91
2023-01-10T20:13:32.639Z,100801.16
2023-01-10T20:16:00.305Z,100793.34
2023-01-10T20:18:28.224Z,100790.91
2023-01-10T20:20:55.854Z,100785.72
2023-01-10T20:23:23.557Z,100796.22
2023-01-10T20:26:03.101Z,100789.47
2023-01-10T20:28:31.468Z,100774.47
2023-01-10T20:31:00.171Z,100784.78
2023-01-10T20:33:28.079Z,100776.75
2023-01-10T20:35:57.070Z,100771.41
2023-01-10T20:38:24.592Z,100769.34
2023-01-10T20:40:52.391Z,100757.06
2023-01-10T20:43:21.216Z,100743.28
2023-01-10T20:45:48.708Z,100755.22
2023-01-10T20:48:16.139Z,100742.63
2023-01-10T20:50:43.926Z,100739.81
2023-01-10T20:53:13.920Z,100740.00
2023-01-10T20:55:41.553Z,100736.28
2023-01-10T20:58:09.691Z,100720.56
2023-01-10T21:00:38.977Z,100719.34
2023-01-10T21:03:06.638Z,100715.41
2023-01-10T21:05:35.975Z,100722.22
2023-01-10T21:08:04.058Z,100703.13
2023-01-10T21:10:31.539Z,100699.44
2023-01-10T21:12:58.953Z,100690.22
2023-01-10T21:15:26.622Z,100690.63
2023-01-10T21:17:55.443Z,100680.19
2023-01-10T21:20:22.989Z,100668.50
2023-01-10T21:22:50.484Z,100662.09
2023-01-10T21:25:18.401Z,100657.03
2023-01-10T21:27:45.934Z,100652.31
2023-01-10T21:30:14.384Z,100640.38
2023-01-10T21:32:42.251Z,100636.75
2023-01-10T21:35:11.126Z,100629.56
2023-01-10T21:37:38.804Z,100619.94
2023-01-10T21:40:07.710Z,100611.34
2023-01-10T21:42:47.892Z,100604.75
2023-01-10T21:45:23.839Z,100600.00
2023-01-10T21:47:52.484Z,100591.47
2023-01-10T21:53:23.171Z,100581.78
2023-01-10T21:55:51.925Z,100578.16
2023-01-10T21:58:27.892Z,100562.56
2023-01-10T22:04:21.361Z,100555.41
2023-01-10T22:30:17.119Z,100506.19
2023-01-10T22:57:07.633Z,100478.16
2023-01-10T23:02:47.703Z,100462.53
2023-01-10T23:08:37.315Z,100468.69
2023-01-10T23:11:09.541Z,100453.53
2023-01-10T23:13:40.368Z,100439.44
2023-01-10T23:19:19.663Z,100455.00
2023-01-10T23:34:07.840Z,100423.97
2023-01-10T23:36:36.762Z,100427.88
2023-01-10T23:39:05.242Z,100412.31
2023-01-10T23:44:27.989Z,100424.97
2023-01-10T23:47:14.459Z,100396.00
2023-01-10T23:49:57.859Z,100415.56
2023-01-10T23:52:38.935Z,100408.91
2023-01-10T23:56:08.381Z,100422.25
2023-01-10T23:58:41.719Z,100394.22
